cubair logo

pricing2Pricing

Rental and Instruction Rates

*Flight Instruction:

$140/hr (Piper J3 Cub)

*Solo (supervised):

$95/hr (Piper J3 Cub)

*Rental:

$95/hr (Piper J3 Cub)

Instruction in Student's Aircraft:

$45/hr

Ground Instruction

$45/hr

*Instruction Rates include the aircraft, fuel, and instructor.

 

Find Us Here!

Hartford Municipal

Airport (KHXF)
4200 Highway U
Hartford, WI 53027

Our Staff

Steve Krog
Jamie Weber

West Bend Weather

[Source: ADDS]
METAR
KETB 191335Z AUTO 00000KT 10SM CLR 17/17 A3002 RMK AO2 =
TAF

Waukesha Weather

[Source: ADDS]
METAR
KUES 191345Z 00000KT 7SM HZ SKC 18/18 A3003 =
TAF
KUES 191251Z 1913/2012 00000KT P6SM SCT010 TEMPO 1913/1914 1SM BR BKN005 FM191500 00000KT P6SM SCT090 FM200600 11010KT P6SM FEW250 =

Juneau Weather

[Source: ADDS]
METAR
KUNU 191335Z AUTO 00000KT 1 3/4SM BR OVC001 17/17 A3003 RMK AO2 VIS 1V4 T01690168 =
TAF

Fond Du Lac Weather

[Source: ADDS]
METAR
KFLD 191253Z AUTO 24003KT 1/4SM FG VV002 16/14 A3002 RMK AO2 SLP165 T01560144 =
TAF